createdAt,value
2023-10-19T00:00:40.791Z,30.80
2023-10-19T00:03:29.061Z,31.00
2023-10-19T00:05:57.500Z,32.30
2023-10-19T00:08:25.472Z,33.60
2023-10-19T00:11:03.724Z,32.20
2023-10-19T00:13:32.444Z,32.10
2023-10-19T00:16:00.979Z,31.20
2023-10-19T00:18:28.840Z,32.10
2023-10-19T00:21:00.300Z,32.30
2023-10-19T00:23:41.151Z,31.40
2023-10-19T00:26:10.214Z,33.30
2023-10-19T00:28:42.176Z,33.60
2023-10-19T00:31:10.295Z,32.80
2023-10-19T00:33:40.486Z,32.50
2023-10-19T00:36:10.665Z,31.40
2023-10-19T00:38:39.697Z,30.50
2023-10-19T00:41:13.221Z,30.70
2023-10-19T00:43:45.550Z,33.10
2023-10-19T00:46:25.515Z,32.30
2023-10-19T00:48:59.440Z,33.40
2023-10-19T00:51:34.767Z,30.60
2023-10-19T00:54:11.793Z,29.20
2023-10-19T00:56:45.954Z,30.00
2023-10-19T00:59:21.337Z,33.10
2023-10-19T01:01:55.430Z,31.30
2023-10-19T01:04:24.561Z,28.30
2023-10-19T01:07:21.726Z,35.40
2023-10-19T01:09:54.825Z,27.60
2023-10-19T01:12:34.376Z,30.10
2023-10-19T01:15:25.070Z,29.40
2023-10-19T01:18:00.315Z,31.00
2023-10-19T01:20:31.004Z,28.10
2023-10-19T01:23:11.316Z,27.60
2023-10-19T01:25:56.886Z,28.50
2023-10-19T01:28:47.043Z,27.70
2023-10-19T01:31:29.741Z,30.50
2023-10-19T01:34:00.206Z,28.40
2023-10-19T01:36:28.867Z,28.10
2023-10-19T01:39:02.629Z,30.90
2023-10-19T01:41:33.521Z,29.00
2023-10-19T01:44:22.255Z,28.40
2023-10-19T01:46:50.543Z,28.10
2023-10-19T01:49:36.497Z,29.00
2023-10-19T01:52:05.644Z,28.80
2023-10-19T01:54:35.849Z,27.00
2023-10-19T01:57:04.746Z,27.90
2023-10-19T01:59:35.674Z,32.10
2023-10-19T02:02:03.800Z,29.90
2023-10-19T02:04:36.505Z,28.30
2023-10-19T02:07:04.649Z,27.80
2023-10-19T02:09:34.004Z,28.20
2023-10-19T02:12:07.178Z,29.00
2023-10-19T02:14:35.773Z,27.90
2023-10-19T02:17:05.092Z,27.00
2023-10-19T02:19:34.287Z,29.00
2023-10-19T02:22:13.013Z,26.70
2023-10-19T02:24:40.959Z,27.90
2023-10-19T02:27:13.654Z,27.50
2023-10-19T02:29:48.254Z,31.00
2023-10-19T02:32:19.573Z,26.70
2023-10-19T02:34:47.698Z,29.20
2023-10-19T02:37:15.647Z,28.50
2023-10-19T02:39:45.136Z,27.20
2023-10-19T02:42:12.971Z,32.50
2023-10-19T02:44:41.124Z,30.10
2023-10-19T02:47:10.722Z,27.50
2023-10-19T02:49:44.964Z,31.20
2023-10-19T02:52:14.483Z,31.80
2023-10-19T02:54:43.214Z,29.80
2023-10-19T02:57:14.868Z,30.60
2023-10-19T02:59:43.314Z,29.10
2023-10-19T03:02:14.264Z,29.70
2023-10-19T03:04:47.595Z,30.30
2023-10-19T03:07:17.271Z,31.20
2023-10-19T03:12:27.858Z,33.40
2023-10-19T03:14:56.086Z,29.70
2023-10-19T03:17:26.883Z,32.50
2023-10-19T03:19:56.958Z,30.30
2023-10-19T03:22:26.043Z,32.20
2023-10-19T03:25:12.981Z,31.10
2023-10-19T03:27:41.569Z,29.90
2023-10-19T03:30:15.724Z,35.30
2023-10-19T03:32:44.140Z,34.60
2023-10-19T03:35:17.195Z,29.80
2023-10-19T03:37:48.733Z,34.10
2023-10-19T03:40:21.683Z,36.60
2023-10-19T03:42:49.605Z,35.90
2023-10-19T03:45:17.362Z,36.50
2023-10-19T03:47:46.085Z,35.20
2023-10-19T03:50:21.800Z,32.40
2023-10-19T03:52:49.972Z,33.50
2023-10-19T03:55:24.478Z,36.70
2023-10-19T03:57:55.851Z,36.40
2023-10-19T04:00:29.806Z,37.80
2023-10-19T04:03:00.484Z,38.70
2023-10-19T04:05:30.012Z,36.40
2023-10-19T04:08:02.267Z,38.20
2023-10-19T04:10:36.401Z,36.70
2023-10-19T04:13:04.799Z,36.20
2023-10-19T04:15:37.005Z,34.60
2023-10-19T04:18:12.615Z,35.30
2023-10-19T04:20:56.075Z,36.70
2023-10-19T04:23:36.474Z,35.20
2023-10-19T04:26:12.230Z,37.50
2023-10-19T04:28:51.751Z,37.80
2023-10-19T04:31:20.549Z,36.00
2023-10-19T04:33:48.455Z,39.90
2023-10-19T04:36:17.682Z,35.20
2023-10-19T04:41:13.535Z,37.60
2023-10-19T04:43:41.504Z,39.10
2023-10-19T04:46:14.319Z,37.70
2023-10-19T04:48:43.618Z,34.60
2023-10-19T04:53:40.002Z,32.70
2023-10-19T04:56:10.433Z,34.60
2023-10-19T04:58:38.940Z,33.10
2023-10-19T05:01:06.934Z,36.30
2023-10-19T05:03:36.307Z,34.30
2023-10-19T05:06:04.684Z,37.50
2023-10-19T05:08:34.193Z,37.20
2023-10-19T05:11:02.957Z,36.70
2023-10-19T05:13:32.706Z,40.30
2023-10-19T05:16:00.778Z,38.00
2023-10-19T05:18:29.129Z,36.70
2023-10-19T05:20:57.107Z,38.90
2023-10-19T05:23:25.590Z,39.50
2023-10-19T05:25:55.542Z,38.80
2023-10-19T05:28:23.405Z,36.20
2023-10-19T05:30:51.383Z,36.70
2023-10-19T05:33:22.561Z,37.50
2023-10-19T05:35:51.894Z,34.90
2023-10-19T05:38:23.963Z,38.00
2023-10-19T05:40:53.370Z,37.40
2023-10-19T05:45:51.770Z,36.50
2023-10-19T05:48:21.621Z,34.40
2023-10-19T05:50:50.992Z,36.20
2023-10-19T05:55:52.067Z,34.50
2023-10-19T05:58:21.634Z,35.60
2023-10-19T06:00:53.536Z,36.60
2023-10-19T06:03:22.092Z,34.80
2023-10-19T06:05:50.400Z,34.40
2023-10-19T06:08:19.190Z,35.00
2023-10-19T06:10:53.063Z,36.10
2023-10-19T06:13:23.426Z,34.60
2023-10-19T06:15:53.259Z,36.00
2023-10-19T06:18:22.243Z,36.00
2023-10-19T06:20:52.713Z,38.30
2023-10-19T06:23:21.113Z,36.70
2023-10-19T06:25:52.754Z,35.40
2023-10-19T06:28:20.810Z,33.80
2023-10-19T06:30:49.586Z,34.70
2023-10-19T06:33:18.380Z,36.80
2023-10-19T06:35:46.306Z,36.10
2023-10-19T06:38:14.436Z,34.30
2023-10-19T06:40:43.589Z,34.40
2023-10-19T06:43:12.736Z,33.30
2023-10-19T06:45:49.188Z,36.60
2023-10-19T06:48:17.091Z,35.50
2023-10-19T06:50:49.658Z,34.40
2023-10-19T06:53:20.548Z,35.40
2023-10-19T06:55:50.594Z,33.40
2023-10-19T06:58:21.360Z,33.50
2023-10-19T07:00:57.820Z,33.50
2023-10-19T07:03:31.932Z,31.90
2023-10-19T07:06:04.848Z,34.30
2023-10-19T07:08:37.454Z,29.70
2023-10-19T07:11:05.659Z,32.70
2023-10-19T07:13:34.883Z,30.90
2023-10-19T07:19:03.142Z,30.00
2023-10-19T07:21:33.473Z,35.40
2023-10-19T07:24:06.287Z,34.40
2023-10-19T07:26:42.826Z,35.50
2023-10-19T07:29:11.590Z,33.60
2023-10-19T07:31:40.367Z,33.20
2023-10-19T07:34:09.963Z,33.70
2023-10-19T07:36:38.284Z,34.70
2023-10-19T07:39:15.599Z,31.80
2023-10-19T07:41:45.371Z,35.50
2023-10-19T07:44:13.798Z,34.60
2023-10-19T07:46:42.663Z,31.80
2023-10-19T07:49:10.540Z,33.40
2023-10-19T07:51:53.688Z,32.70
2023-10-19T07:54:24.189Z,35.00
2023-10-19T07:56:52.304Z,33.90
2023-10-19T07:59:23.155Z,34.20
2023-10-19T08:01:53.230Z,30.70
2023-10-19T08:04:21.996Z,32.80
2023-10-19T08:06:50.012Z,32.70
2023-10-19T08:09:24.185Z,33.10
2023-10-19T08:11:56.738Z,32.90
2023-10-19T08:14:27.873Z,32.10
2023-10-19T08:16:58.025Z,34.20
2023-10-19T08:19:28.331Z,31.20
2023-10-19T08:21:56.880Z,34.30
2023-10-19T08:24:25.141Z,33.40
2023-10-19T08:26:53.159Z,33.00
2023-10-19T08:29:21.321Z,31.10
2023-10-19T08:31:49.786Z,32.30
2023-10-19T08:34:18.780Z,28.70
2023-10-19T08:36:47.113Z,29.20
2023-10-19T08:41:44.499Z,29.40
2023-10-19T08:44:12.823Z,29.30
2023-10-19T08:46:46.662Z,30.70
2023-10-19T08:49:16.868Z,31.90
2023-10-19T08:51:46.857Z,31.30
2023-10-19T08:54:16.582Z,31.70
2023-10-19T08:56:45.868Z,33.30
2023-10-19T08:59:16.569Z,35.40
2023-10-19T09:01:47.357Z,30.00
2023-10-19T09:04:18.064Z,30.60
2023-10-19T09:06:46.703Z,32.60
2023-10-19T09:09:18.064Z,31.40
2023-10-19T09:11:50.133Z,31.20
2023-10-19T09:14:34.880Z,32.40
2023-10-19T09:17:09.559Z,29.20
2023-10-19T09:19:43.206Z,30.80
2023-10-19T09:22:19.825Z,33.30
2023-10-19T09:24:54.608Z,32.60
2023-10-19T09:27:23.204Z,30.30
2023-10-19T09:29:52.990Z,29.60
2023-10-19T09:32:21.608Z,30.30
2023-10-19T09:34:54.425Z,29.80
2023-10-19T09:37:26.136Z,30.30
2023-10-19T09:39:57.049Z,29.00
2023-10-19T09:42:33.462Z,28.30
2023-10-19T09:45:07.063Z,29.90
2023-10-19T09:47:40.544Z,33.40
2023-10-19T09:50:12.515Z,30.40
2023-10-19T09:52:41.193Z,28.60
2023-10-19T09:55:29.064Z,32.00
2023-10-19T09:58:08.434Z,28.80
2023-10-19T10:00:37.048Z,27.00
2023-10-19T10:03:09.814Z,32.30
2023-10-19T10:05:44.379Z,30.10
2023-10-19T10:08:18.272Z,29.00
2023-10-19T10:10:52.529Z,29.30
2023-10-19T10:13:29.891Z,26.30
2023-10-19T10:16:00.138Z,31.30
2023-10-19T10:18:34.583Z,30.20
2023-10-19T10:21:11.562Z,32.20
2023-10-19T10:23:51.446Z,30.10
2023-10-19T10:26:21.754Z,30.90
2023-10-19T10:29:10.843Z,31.50
2023-10-19T10:31:44.201Z,28.90
2023-10-19T10:34:32.367Z,31.30
2023-10-19T10:37:05.104Z,32.30
2023-10-19T10:39:41.821Z,33.30
2023-10-19T10:42:11.367Z,31.80
2023-10-19T10:44:45.149Z,33.00
2023-10-19T10:47:24.404Z,33.70
2023-10-19T10:49:57.469Z,32.60
2023-10-19T10:52:31.183Z,32.90
2023-10-19T10:55:08.145Z,38.30
2023-10-19T10:57:37.890Z,34.00
2023-10-19T11:02:37.461Z,30.30
2023-10-19T11:05:06.282Z,38.00
2023-10-19T11:07:34.471Z,33.10
2023-10-19T11:10:03.067Z,35.20
2023-10-19T11:12:31.590Z,38.60
2023-10-19T11:15:01.534Z,35.00
2023-10-19T11:17:32.806Z,36.10
2023-10-19T11:20:05.970Z,33.70
2023-10-19T11:22:35.067Z,34.50
2023-10-19T11:25:25.765Z,35.50
2023-10-19T11:27:56.981Z,38.90
2023-10-19T11:30:26.001Z,33.50
2023-10-19T11:32:58.342Z,36.30
2023-10-19T11:35:32.218Z,29.90
2023-10-19T11:38:03.897Z,32.00
2023-10-19T11:40:32.230Z,31.70
2023-10-19T11:43:02.554Z,33.30
2023-10-19T11:45:31.153Z,30.30
2023-10-19T11:48:01.231Z,32.60
2023-10-19T11:50:30.178Z,31.30
2023-10-19T11:52:58.704Z,28.00
2023-10-19T11:55:26.944Z,29.60
2023-10-19T11:57:54.712Z,31.50
2023-10-19T12:00:35.211Z,30.00
2023-10-19T12:03:07.936Z,27.40
2023-10-19T12:05:39.956Z,30.10
2023-10-19T12:08:08.156Z,28.80
2023-10-19T12:10:39.663Z,30.50
2023-10-19T12:13:13.261Z,32.60
2023-10-19T12:15:42.358Z,33.20
2023-10-19T12:18:10.306Z,30.30
2023-10-19T12:20:39.337Z,31.40
2023-10-19T12:23:07.815Z,29.50
2023-10-19T12:25:53.853Z,28.80
2023-10-19T12:28:29.649Z,30.80
2023-10-19T12:30:57.772Z,32.00
2023-10-19T12:33:25.749Z,31.80
2023-10-19T12:36:02.542Z,33.10
2023-10-19T12:38:30.923Z,34.40
2023-10-19T12:41:00.262Z,36.20
2023-10-19T12:45:59.362Z,33.00
2023-10-19T12:48:35.097Z,33.20
2023-10-19T12:51:12.811Z,33.40
2023-10-19T12:53:41.477Z,30.50
2023-10-19T12:56:11.757Z,33.60
2023-10-19T12:58:39.596Z,32.40
2023-10-19T13:01:10.174Z,33.80
2023-10-19T13:03:39.771Z,34.70
2023-10-19T13:06:08.903Z,33.30
2023-10-19T13:08:39.326Z,36.10
2023-10-19T13:11:16.686Z,34.40
2023-10-19T13:13:48.148Z,34.70
2023-10-19T13:18:45.582Z,38.10
2023-10-19T13:21:18.575Z,34.20
2023-10-19T13:23:46.813Z,35.90
2023-10-19T13:26:18.702Z,37.00
2023-10-19T13:28:48.451Z,32.60
2023-10-19T13:31:17.134Z,35.90
2023-10-19T13:33:46.834Z,37.80
2023-10-19T13:36:15.135Z,34.50
2023-10-19T13:38:44.492Z,32.90
2023-10-19T13:41:13.165Z,33.80
2023-10-19T13:43:43.994Z,34.80
2023-10-19T13:46:12.626Z,35.50
2023-10-19T13:48:41.188Z,35.70
2023-10-19T13:51:16.947Z,34.60
2023-10-19T13:53:46.586Z,33.40
2023-10-19T13:56:18.221Z,40.00
2023-10-19T13:58:48.528Z,35.90
2023-10-19T14:01:18.183Z,33.90
2023-10-19T14:03:47.435Z,35.30
2023-10-19T14:08:44.373Z,37.60
2023-10-19T14:11:12.997Z,34.20
2023-10-19T14:13:44.737Z,34.70
2023-10-19T14:16:12.903Z,35.10
2023-10-19T14:18:41.676Z,36.00
2023-10-19T14:23:47.181Z,36.20
2023-10-19T14:26:16.011Z,36.20
2023-10-19T14:28:44.445Z,36.70
2023-10-19T14:31:13.605Z,35.90
2023-10-19T14:36:10.371Z,37.20
2023-10-19T14:38:40.764Z,31.30
2023-10-19T14:41:10.765Z,36.00
2023-10-19T14:43:39.415Z,37.90
2023-10-19T14:46:07.908Z,41.40
2023-10-19T14:48:38.923Z,34.50
2023-10-19T14:51:08.325Z,37.40
2023-10-19T14:56:05.084Z,36.80
2023-10-19T14:58:33.396Z,36.20
2023-10-19T15:01:01.461Z,38.60
2023-10-19T15:03:30.562Z,37.50
2023-10-19T15:06:01.064Z,37.90
2023-10-19T15:08:32.515Z,38.80
2023-10-19T15:11:01.392Z,40.20
2023-10-19T15:13:29.348Z,39.00
2023-10-19T15:15:57.947Z,38.70
2023-10-19T15:18:26.610Z,39.90
2023-10-19T15:20:54.368Z,41.70
2023-10-19T15:23:22.668Z,39.40
2023-10-19T15:25:51.087Z,38.00
2023-10-19T15:28:18.893Z,42.80
2023-10-19T15:30:46.745Z,40.90
2023-10-19T15:33:15.991Z,40.90
2023-10-19T15:38:11.769Z,40.60
2023-10-19T15:40:41.621Z,43.20
2023-10-19T15:43:11.005Z,45.80
2023-10-19T15:45:42.527Z,42.50
2023-10-19T15:48:13.210Z,42.30
2023-10-19T15:50:44.675Z,40.80
2023-10-19T15:53:13.139Z,42.20
2023-10-19T15:55:41.990Z,43.70
2023-10-19T15:58:12.499Z,48.70
2023-10-19T16:00:41.312Z,44.60
2023-10-19T16:03:09.826Z,49.90
2023-10-19T16:05:38.007Z,47.60
2023-10-19T16:08:07.535Z,44.90
2023-10-19T16:10:35.636Z,44.40
2023-10-19T16:13:04.558Z,47.90
2023-10-19T16:15:32.869Z,46.40
2023-10-19T16:18:01.116Z,48.80
2023-10-19T16:20:30.038Z,48.60
2023-10-19T16:23:00.203Z,53.10
2023-10-19T16:25:28.153Z,47.90
2023-10-19T16:27:56.366Z,47.00
2023-10-19T16:30:24.385Z,50.10
2023-10-19T16:32:52.603Z,47.70
2023-10-19T16:35:20.900Z,50.90
2023-10-19T16:37:49.777Z,50.90
2023-10-19T16:40:17.856Z,51.60
2023-10-19T16:42:46.033Z,54.10
2023-10-19T16:45:14.690Z,55.30
2023-10-19T16:47:43.964Z,52.90
2023-10-19T16:50:20.380Z,53.30
2023-10-19T16:52:50.275Z,54.40
2023-10-19T16:55:19.907Z,51.80
2023-10-19T16:57:48.094Z,49.80
2023-10-19T17:00:17.610Z,52.90
2023-10-19T17:02:45.783Z,55.30
2023-10-19T17:05:14.338Z,54.80
2023-10-19T17:07:42.451Z,54.70
2023-10-19T17:10:10.981Z,55.10
2023-10-19T17:12:39.857Z,58.10
2023-10-19T17:15:13.860Z,56.40
2023-10-19T17:17:43.422Z,59.30
2023-10-19T17:20:12.564Z,57.30
2023-10-19T17:22:40.774Z,60.20
2023-10-19T17:25:09.220Z,57.60
2023-10-19T17:27:39.414Z,60.90
2023-10-19T17:30:08.107Z,57.70
2023-10-19T17:32:36.406Z,58.00
2023-10-19T17:35:06.168Z,58.30
2023-10-19T17:37:34.707Z,60.40
2023-10-19T17:40:05.911Z,59.50
2023-10-19T17:42:33.870Z,63.80
2023-10-19T17:45:01.652Z,59.50
2023-10-19T17:47:30.076Z,63.40
2023-10-19T17:49:58.365Z,63.50
2023-10-19T17:52:26.173Z,64.10
2023-10-19T17:54:54.924Z,63.50
2023-10-19T17:57:24.187Z,64.60
2023-10-19T17:59:52.011Z,70.00
2023-10-19T18:02:20.498Z,71.70
2023-10-19T18:04:54.334Z,65.50
2023-10-19T18:07:23.750Z,70.30
2023-10-19T18:09:52.019Z,70.20
2023-10-19T18:12:20.712Z,68.40
2023-10-19T18:14:50.007Z,73.70
2023-10-19T18:17:19.842Z,66.20
2023-10-19T18:19:52.426Z,71.90
2023-10-19T18:22:20.656Z,64.80
2023-10-19T18:24:48.728Z,72.50
2023-10-19T18:27:17.110Z,64.70
2023-10-19T18:29:45.458Z,76.40
2023-10-19T18:32:13.290Z,76.00
2023-10-19T18:34:41.316Z,76.00
2023-10-19T18:37:12.889Z,80.80
2023-10-19T18:39:40.755Z,71.60
2023-10-19T18:42:12.829Z,75.40
2023-10-19T18:44:41.036Z,73.70
2023-10-19T18:47:09.304Z,77.40
2023-10-19T18:49:37.522Z,76.20
2023-10-19T18:52:08.487Z,74.00
2023-10-19T18:54:36.505Z,83.00
2023-10-19T18:57:04.815Z,70.60
2023-10-19T18:59:33.388Z,77.70
2023-10-19T19:02:01.380Z,81.20
2023-10-19T19:04:29.442Z,82.40
2023-10-19T19:06:57.591Z,84.10
2023-10-19T19:09:28.196Z,80.00
2023-10-19T19:11:56.905Z,84.20
2023-10-19T19:14:25.251Z,80.40
2023-10-19T19:16:53.183Z,76.50
2023-10-19T19:19:21.252Z,74.30
2023-10-19T19:21:49.470Z,75.30
2023-10-19T19:24:17.283Z,78.70
2023-10-19T19:26:45.746Z,81.20
2023-10-19T19:29:13.976Z,85.20
2023-10-19T19:31:41.806Z,82.40
2023-10-19T19:34:09.770Z,78.60
2023-10-19T19:36:37.878Z,74.40
2023-10-19T19:39:08.448Z,77.60
2023-10-19T19:41:36.362Z,77.20
2023-10-19T19:44:04.812Z,76.80
2023-10-19T19:46:32.901Z,80.60
2023-10-19T19:49:02.703Z,84.30
2023-10-19T19:51:34.391Z,87.20
2023-10-19T19:54:04.505Z,83.30
2023-10-19T19:56:32.957Z,85.60
2023-10-19T19:59:01.183Z,86.40
2023-10-19T20:01:28.969Z,78.60
2023-10-19T20:03:57.383Z,87.70
2023-10-19T20:06:25.197Z,86.00
2023-10-19T20:08:52.906Z,91.80
2023-10-19T20:11:21.866Z,83.50
2023-10-19T20:13:49.670Z,83.90
2023-10-19T20:16:17.486Z,82.60
2023-10-19T20:18:46.080Z,82.90
2023-10-19T20:21:16.520Z,76.90
2023-10-19T20:23:44.294Z,84.30
2023-10-19T20:26:16.015Z,82.40
2023-10-19T20:28:44.227Z,80.10
2023-10-19T20:31:12.093Z,75.00
2023-10-19T20:33:40.761Z,77.40
2023-10-19T20:36:08.522Z,83.90
2023-10-19T20:38:37.445Z,78.40
2023-10-19T20:43:34.800Z,74.10
2023-10-19T20:46:05.870Z,76.80
2023-10-19T20:48:34.123Z,74.00
2023-10-19T20:51:04.030Z,77.80
2023-10-19T20:53:31.806Z,83.60
2023-10-19T20:56:01.489Z,76.70
2023-10-19T21:01:06.561Z,69.70
2023-10-19T21:03:35.576Z,77.70
2023-10-19T21:06:14.629Z,74.40
2023-10-19T21:11:21.971Z,84.90
2023-10-19T21:13:50.720Z,78.30
2023-10-19T21:16:18.526Z,81.20
2023-10-19T21:18:46.520Z,82.10
2023-10-19T21:21:15.069Z,70.40
2023-10-19T21:23:42.894Z,70.00
2023-10-19T21:26:12.791Z,74.20
2023-10-19T21:28:44.428Z,73.40
2023-10-19T21:31:12.895Z,71.50
2023-10-19T21:33:40.841Z,74.60
2023-10-19T21:36:09.014Z,67.50
2023-10-19T21:38:39.267Z,77.50
2023-10-19T21:41:08.684Z,72.30
2023-10-19T21:43:37.442Z,72.00
2023-10-19T21:46:06.107Z,69.90
2023-10-19T21:48:34.288Z,72.10
2023-10-19T21:51:02.484Z,73.40
2023-10-19T21:53:30.637Z,76.50
2023-10-19T21:55:59.103Z,70.30
2023-10-19T21:58:27.199Z,68.50
2023-10-19T22:00:58.059Z,76.00
2023-10-19T22:03:26.508Z,68.50
2023-10-19T22:05:55.011Z,67.20
2023-10-19T22:08:23.186Z,65.10
2023-10-19T22:10:51.509Z,68.50
2023-10-19T22:13:19.349Z,70.00
2023-10-19T22:15:47.434Z,68.10
2023-10-19T22:18:15.701Z,69.40
2023-10-19T22:20:43.752Z,66.90
2023-10-19T22:23:11.754Z,64.00
2023-10-19T22:25:40.259Z,73.80
2023-10-19T22:28:08.941Z,71.10
2023-10-19T22:30:36.870Z,69.20
2023-10-19T22:33:04.944Z,67.80
2023-10-19T22:35:32.954Z,70.80
2023-10-19T22:38:02.361Z,75.00
2023-10-19T22:40:30.367Z,71.30
2023-10-19T22:42:58.620Z,70.00
2023-10-19T22:45:26.561Z,67.70
2023-10-19T22:47:54.939Z,69.20
2023-10-19T22:50:23.130Z,65.50
2023-10-19T22:52:51.140Z,71.00
2023-10-19T22:55:19.653Z,66.70
2023-10-19T22:57:52.273Z,68.40
2023-10-19T23:00:21.330Z,73.60
2023-10-19T23:02:49.915Z,68.60
2023-10-19T23:05:18.656Z,70.30
2023-10-19T23:07:47.531Z,67.00
2023-10-19T23:10:20.356Z,74.00
2023-10-19T23:12:48.723Z,72.00
2023-10-19T23:15:20.596Z,71.90
2023-10-19T23:17:52.115Z,71.60
2023-10-19T23:20:29.338Z,72.20
2023-10-19T23:22:59.689Z,66.30
2023-10-19T23:25:29.650Z,67.90
2023-10-19T23:27:58.289Z,63.30
2023-10-19T23:30:26.350Z,67.60
2023-10-19T23:32:55.745Z,64.10
2023-10-19T23:35:23.942Z,63.50
2023-10-19T23:37:52.345Z,64.30
2023-10-19T23:40:20.903Z,62.70
2023-10-19T23:42:48.638Z,64.10
2023-10-19T23:45:16.934Z,67.40
2023-10-19T23:47:48.374Z,65.00
2023-10-19T23:50:16.424Z,64.80
2023-10-19T23:52:44.535Z,62.70
2023-10-19T23:55:14.638Z,66.40
2023-10-19T23:57:44.222Z,63.00
